Aeroporto :
LOGIN :

Iscrizione | Disclaimer

   EN    FR    IT 

 










Sommario :    VFR   VFR Marginale   IFR   IFR Intensivo   IFR Molto Intensivo
Visibilità : 
Base nubi : 
>= 8 km
>= 3000ft
5 / 8 km
1000 / 3000 ft
1500m / 5 km
500 / 1000 ft
800 / 1500m
200 / 500 ft
< 800m
< 200 ft
Simboli :   Temporali  Nebbia  Neve Forte  Precipitazioni Forti  Vento > 20 kt
SIGMETs :   Varie  Temporali  Ghiacco  Turbolenza  Onda orograficha  Ceneri Vulcaniche






- Altitudine del aeroporto : 1260 ft
- Codice IATA : LDE


LFBT - Tarbes / Ossun

ULTIMO METAR :
  • 231930Z AUTO 28005KT 9999 FEW019/// BKN031/// BKN072/// ///TCU 05/03 Q1006

METARs OBSOLETI :
  • 231900Z AUTO 24007KT 9999 SCT013/// SCT070/// BKN140/// //////TCU 04/03 Q1005
  • 231830Z AUTO 25011KT 9999 OVC013/// ///TCU 05/03 Q1006
  • 231800Z AUTO 27012KT 7000 RA BKN013/// OVC020/// //////CB 05/04 Q1005
  • 231730Z AUTO 29016G28KT 250V310 5000 RA BR BKN013/// BKN021/// OVC041/// //////CB 05/03 Q1005
  • 231700Z AUTO 31015G25KT 9999 SCT023/// BKN062/// BKN100/// //////TCU 07/03 Q1004
  • 231630Z AUTO 30006KT 9999 FEW060 SCT094 BKN110 07/03 Q1004
  • 231600Z AUTO 28010KT 9999 FEW054 08/02 Q1004
  • 231530Z AUTO 29011KT 9999 FEW042 BKN074 08/03 Q1004
  • 231500Z AUTO 27010KT 240V310 9999 FEW050 08/03 Q1004
  • 231430Z AUTO 29013KT 9999 FEW047 BKN066 OVC078 07/03 Q1005

Previsioni scadute.



MetMap, La meteo Aeronautica in un colpo d'occhio ! - Copyright ORBIFLY Dicembre 2007 - Disclaimer

ORBIFLY MET'MAP TEAM :

Programmazione e sviluppo : Alexandra Zaïnal
Concezione : Baudouin d'Aumeries
Supporto tecnico e logistico : Manuel Goepfert
Aiuto : Marc-Olivier Méhu
Aiuto per la traduzione : Arnaldo La Scala




FONTI E CREDITI :

   NOAA